sensor_id;sensor_type;location;lat;lon;timestamp;P1;durP1;ratioP1;P2;durP2;ratioP2
29854;SDS011;16733;48.738;9.106;2023-02-28T00:01:20;3.22;;;1.70;;
29854;SDS011;16733;48.738;9.106;2023-02-28T00:03:46;2.65;;;1.70;;
29854;SDS011;16733;48.738;9.106;2023-02-28T00:06:12;3.38;;;1.50;;
29854;SDS011;16733;48.738;9.106;2023-02-28T00:08:38;6.30;;;1.63;;
29854;SDS011;16733;48.738;9.106;2023-02-28T00:11:08;4.32;;;1.90;;
29854;SDS011;16733;48.738;9.106;2023-02-28T00:13:36;1.67;;;1.30;;
29854;SDS011;16733;48.738;9.106;2023-02-28T00:16:04;1.27;;;1.10;;
29854;SDS011;16733;48.738;9.106;2023-02-28T00:18:32;3.78;;;2.10;;
29854;SDS011;16733;48.738;9.106;2023-02-28T00:20:58;3.53;;;1.90;;
29854;SDS011;16733;48.738;9.106;2023-02-28T00:23:24;3.13;;;1.65;;
29854;SDS011;16733;48.738;9.106;2023-02-28T00:25:50;7.38;;;1.40;;
29854;SDS011;16733;48.738;9.106;2023-02-28T00:28:16;2.72;;;1.50;;
29854;SDS011;16733;48.738;9.106;2023-02-28T00:30:42;2.85;;;1.60;;
29854;SDS011;16733;48.738;9.106;2023-02-28T00:33:08;5.28;;;2.00;;
29854;SDS011;16733;48.738;9.106;2023-02-28T00:35:33;1.70;;;1.40;;
29854;SDS011;16733;48.738;9.106;2023-02-28T00:37:59;6.00;;;2.03;;
29854;SDS011;16733;48.738;9.106;2023-02-28T00:40:24;2.38;;;1.52;;
29854;SDS011;16733;48.738;9.106;2023-02-28T00:42:50;1.98;;;1.38;;
29854;SDS011;16733;48.738;9.106;2023-02-28T00:45:16;2.50;;;1.55;;
29854;SDS011;16733;48.738;9.106;2023-02-28T00:47:41;2.25;;;1.15;;
29854;SDS011;16733;48.738;9.106;2023-02-28T00:50:07;4.82;;;1.38;;
29854;SDS011;16733;48.738;9.106;2023-02-28T00:52:33;4.13;;;1.73;;
29854;SDS011;16733;48.738;9.106;2023-02-28T00:54:59;4.10;;;2.10;;
29854;SDS011;16733;48.738;9.106;2023-02-28T00:57:24;2.67;;;1.92;;
29854;SDS011;16733;48.738;9.106;2023-02-28T00:59:51;2.45;;;1.40;;
29854;SDS011;16733;48.738;9.106;2023-02-28T01:02:19;2.00;;;1.67;;
29854;SDS011;16733;48.738;9.106;2023-02-28T01:04:45;2.75;;;1.67;;
29854;SDS011;16733;48.738;9.106;2023-02-28T01:07:11;1.95;;;1.20;;
29854;SDS011;16733;48.738;9.106;2023-02-28T01:09:37;1.38;;;1.20;;
29854;SDS011;16733;48.738;9.106;2023-02-28T01:12:03;6.20;;;1.33;;
29854;SDS011;16733;48.738;9.106;2023-02-28T01:14:29;4.18;;;1.85;;
29854;SDS011;16733;48.738;9.106;2023-02-28T01:16:54;3.25;;;1.70;;
29854;SDS011;16733;48.738;9.106;2023-02-28T01:19:20;2.85;;;1.98;;
29854;SDS011;16733;48.738;9.106;2023-02-28T01:21:45;2.97;;;1.50;;
29854;SDS011;16733;48.738;9.106;2023-02-28T01:24:11;3.67;;;1.60;;
29854;SDS011;16733;48.738;9.106;2023-02-28T01:26:37;2.63;;;1.95;;
29854;SDS011;16733;48.738;9.106;2023-02-28T01:29:02;4.65;;;1.77;;
29854;SDS011;16733;48.738;9.106;2023-02-28T01:31:28;3.40;;;1.33;;
29854;SDS011;16733;48.738;9.106;2023-02-28T01:33:53;2.47;;;1.40;;
29854;SDS011;16733;48.738;9.106;2023-02-28T01:36:20;4.45;;;2.45;;
29854;SDS011;16733;48.738;9.106;2023-02-28T01:38:47;4.43;;;2.03;;
29854;SDS011;16733;48.738;9.106;2023-02-28T01:46:12;3.63;;;1.80;;
29854;SDS011;16733;48.738;9.106;2023-02-28T01:48:43;3.53;;;1.83;;
29854;SDS011;16733;48.738;9.106;2023-02-28T01:51:26;6.22;;;1.83;;
29854;SDS011;16733;48.738;9.106;2023-02-28T01:54:00;2.95;;;1.30;;
29854;SDS011;16733;48.738;9.106;2023-02-28T01:56:38;3.88;;;1.92;;
29854;SDS011;16733;48.738;9.106;2023-02-28T01:59:10;6.60;;;1.70;;
29854;SDS011;16733;48.738;9.106;2023-02-28T02:01:39;4.28;;;2.15;;
29854;SDS011;16733;48.738;9.106;2023-02-28T02:04:05;2.42;;;1.58;;
29854;SDS011;16733;48.738;9.106;2023-02-28T02:06:34;2.88;;;1.70;;
29854;SDS011;16733;48.738;9.106;2023-02-28T02:09:03;9.07;;;1.88;;
29854;SDS011;16733;48.738;9.106;2023-02-28T02:11:28;2.70;;;1.63;;
29854;SDS011;16733;48.738;9.106;2023-02-28T02:36:00;2.97;;;1.95;;
29854;SDS011;16733;48.738;9.106;2023-02-28T02:38:50;2.10;;;1.63;;
29854;SDS011;16733;48.738;9.106;2023-02-28T02:41:28;2.75;;;1.95;;
29854;SDS011;16733;48.738;9.106;2023-02-28T02:46:37;3.08;;;2.15;;
29854;SDS011;16733;48.738;9.106;2023-02-28T02:49:08;2.55;;;2.00;;
29854;SDS011;16733;48.738;9.106;2023-02-28T02:51:37;5.18;;;2.67;;
29854;SDS011;16733;48.738;9.106;2023-02-28T02:54:06;5.28;;;2.60;;
29854;SDS011;16733;48.738;9.106;2023-02-28T02:56:36;2.92;;;1.95;;
29854;SDS011;16733;48.738;9.106;2023-02-28T02:59:07;3.53;;;2.45;;
29854;SDS011;16733;48.738;9.106;2023-02-28T03:01:35;4.53;;;2.78;;
29854;SDS011;16733;48.738;9.106;2023-02-28T03:04:13;5.72;;;2.50;;
29854;SDS011;16733;48.738;9.106;2023-02-28T03:06:43;4.60;;;2.38;;
29854;SDS011;16733;48.738;9.106;2023-02-28T03:09:09;5.85;;;2.30;;
29854;SDS011;16733;48.738;9.106;2023-02-28T03:11:35;2.17;;;1.52;;
29854;SDS011;16733;48.738;9.106;2023-02-28T03:14:08;5.38;;;2.47;;
29854;SDS011;16733;48.738;9.106;2023-02-28T03:30:41;5.28;;;2.13;;
29854;SDS011;16733;48.738;9.106;2023-02-28T03:33:14;3.47;;;2.08;;
29854;SDS011;16733;48.738;9.106;2023-02-28T03:35:49;2.85;;;1.98;;
29854;SDS011;16733;48.738;9.106;2023-02-28T03:41:12;3.47;;;2.78;;
29854;SDS011;16733;48.738;9.106;2023-02-28T03:43:41;4.13;;;2.30;;
29854;SDS011;16733;48.738;9.106;2023-02-28T03:46:14;4.82;;;2.47;;
29854;SDS011;16733;48.738;9.106;2023-02-28T03:48:48;6.20;;;3.08;;
29854;SDS011;16733;48.738;9.106;2023-02-28T03:51:27;4.43;;;2.38;;
29854;SDS011;16733;48.738;9.106;2023-02-28T03:53:54;4.38;;;3.25;;
29854;SDS011;16733;48.738;9.106;2023-02-28T03:56:27;4.25;;;2.03;;
29854;SDS011;16733;48.738;9.106;2023-02-28T04:01:32;5.85;;;2.53;;
29854;SDS011;16733;48.738;9.106;2023-02-28T04:04:10;4.33;;;2.13;;
29854;SDS011;16733;48.738;9.106;2023-02-28T04:06:37;4.57;;;2.40;;
29854;SDS011;16733;48.738;9.106;2023-02-28T04:09:03;4.40;;;2.20;;
29854;SDS011;16733;48.738;9.106;2023-02-28T04:11:34;5.80;;;2.22;;
29854;SDS011;16733;48.738;9.106;2023-02-28T04:14:07;3.28;;;2.67;;
29854;SDS011;16733;48.738;9.106;2023-02-28T04:16:35;4.75;;;2.70;;
29854;SDS011;16733;48.738;9.106;2023-02-28T04:19:03;3.67;;;2.38;;
29854;SDS011;16733;48.738;9.106;2023-02-28T04:21:34;7.00;;;3.17;;
29854;SDS011;16733;48.738;9.106;2023-02-28T04:24:02;6.75;;;3.00;;
29854;SDS011;16733;48.738;9.106;2023-02-28T04:26:31;6.18;;;3.20;;
29854;SDS011;16733;48.738;9.106;2023-02-28T04:28:58;3.70;;;2.72;;
29854;SDS011;16733;48.738;9.106;2023-02-28T04:31:25;4.32;;;2.70;;
29854;SDS011;16733;48.738;9.106;2023-02-28T04:33:51;4.07;;;2.58;;
29854;SDS011;16733;48.738;9.106;2023-02-28T04:36:17;6.93;;;3.30;;
29854;SDS011;16733;48.738;9.106;2023-02-28T04:38:43;4.60;;;2.58;;
29854;SDS011;16733;48.738;9.106;2023-02-28T04:41:10;5.93;;;3.20;;
29854;SDS011;16733;48.738;9.106;2023-02-28T04:43:36;4.80;;;2.60;;
29854;SDS011;16733;48.738;9.106;2023-02-28T04:46:03;5.40;;;2.58;;
29854;SDS011;16733;48.738;9.106;2023-02-28T04:48:31;4.72;;;2.95;;
29854;SDS011;16733;48.738;9.106;2023-02-28T04:53:30;2.50;;;2.30;;
29854;SDS011;16733;48.738;9.106;2023-02-28T04:55:56;6.78;;;2.55;;
29854;SDS011;16733;48.738;9.106;2023-02-28T04:58:22;5.60;;;3.10;;
29854;SDS011;16733;48.738;9.106;2023-02-28T05:00:53;5.80;;;3.03;;
29854;SDS011;16733;48.738;9.106;2023-02-28T05:03:25;5.25;;;3.03;;
29854;SDS011;16733;48.738;9.106;2023-02-28T05:05:51;4.20;;;2.65;;
29854;SDS011;16733;48.738;9.106;2023-02-28T05:08:17;4.10;;;2.60;;
29854;SDS011;16733;48.738;9.106;2023-02-28T05:10:42;5.93;;;2.67;;
29854;SDS011;16733;48.738;9.106;2023-02-28T05:13:09;4.93;;;2.80;;
29854;SDS011;16733;48.738;9.106;2023-02-28T05:15:36;4.85;;;3.17;;
29854;SDS011;16733;48.738;9.106;2023-02-28T05:18:02;10.00;;;3.47;;
29854;SDS011;16733;48.738;9.106;2023-02-28T05:20:27;8.10;;;3.88;;
29854;SDS011;16733;48.738;9.106;2023-02-28T05:22:53;4.20;;;2.40;;
29854;SDS011;16733;48.738;9.106;2023-02-28T05:25:19;6.07;;;3.05;;
29854;SDS011;16733;48.738;9.106;2023-02-28T05:27:47;4.93;;;3.55;;
29854;SDS011;16733;48.738;9.106;2023-02-28T05:30:12;4.72;;;3.13;;
29854;SDS011;16733;48.738;9.106;2023-02-28T05:32:39;4.95;;;3.05;;
29854;SDS011;16733;48.738;9.106;2023-02-28T05:35:08;6.15;;;2.80;;
29854;SDS011;16733;48.738;9.106;2023-02-28T05:37:35;5.10;;;2.85;;
29854;SDS011;16733;48.738;9.106;2023-02-28T05:40:01;6.82;;;3.15;;
29854;SDS011;16733;48.738;9.106;2023-02-28T05:42:27;6.40;;;3.10;;
29854;SDS011;16733;48.738;9.106;2023-02-28T05:44:53;5.50;;;3.60;;
29854;SDS011;16733;48.738;9.106;2023-02-28T05:47:19;5.05;;;2.65;;
29854;SDS011;16733;48.738;9.106;2023-02-28T05:49:44;5.03;;;2.80;;
29854;SDS011;16733;48.738;9.106;2023-02-28T05:52:10;9.50;;;3.90;;
29854;SDS011;16733;48.738;9.106;2023-02-28T05:54:35;5.25;;;3.22;;
29854;SDS011;16733;48.738;9.106;2023-02-28T05:57:01;5.15;;;3.20;;
29854;SDS011;16733;48.738;9.106;2023-02-28T05:59:26;6.70;;;3.03;;
29854;SDS011;16733;48.738;9.106;2023-02-28T06:01:52;8.32;;;3.58;;
29854;SDS011;16733;48.738;9.106;2023-02-28T06:04:18;6.68;;;4.00;;
29854;SDS011;16733;48.738;9.106;2023-02-28T06:06:45;5.40;;;2.95;;
29854;SDS011;16733;48.738;9.106;2023-02-28T06:09:12;6.07;;;3.55;;
29854;SDS011;16733;48.738;9.106;2023-02-28T06:11:38;3.85;;;2.70;;
29854;SDS011;16733;48.738;9.106;2023-02-28T06:14:04;7.63;;;3.25;;
29854;SDS011;16733;48.738;9.106;2023-02-28T06:16:30;5.45;;;2.90;;
29854;SDS011;16733;48.738;9.106;2023-02-28T06:18:58;10.05;;;2.85;;
29854;SDS011;16733;48.738;9.106;2023-02-28T06:21:25;8.50;;;3.63;;
29854;SDS011;16733;48.738;9.106;2023-02-28T06:23:52;13.88;;;3.83;;
29854;SDS011;16733;48.738;9.106;2023-02-28T06:26:18;4.93;;;2.95;;
29854;SDS011;16733;48.738;9.106;2023-02-28T06:28:44;6.90;;;3.90;;
29854;SDS011;16733;48.738;9.106;2023-02-28T06:31:10;3.78;;;2.67;;
29854;SDS011;16733;48.738;9.106;2023-02-28T06:33:38;7.95;;;3.50;;
29854;SDS011;16733;48.738;9.106;2023-02-28T06:36:04;7.53;;;4.03;;
29854;SDS011;16733;48.738;9.106;2023-02-28T06:38:31;4.88;;;2.90;;
29854;SDS011;16733;48.738;9.106;2023-02-28T06:40:57;6.30;;;3.22;;
29854;SDS011;16733;48.738;9.106;2023-02-28T06:43:25;9.18;;;4.30;;
29854;SDS011;16733;48.738;9.106;2023-02-28T06:45:56;6.35;;;3.10;;
29854;SDS011;16733;48.738;9.106;2023-02-28T06:48:22;6.88;;;4.03;;
29854;SDS011;16733;48.738;9.106;2023-02-28T06:50:48;9.00;;;3.20;;
29854;SDS011;16733;48.738;9.106;2023-02-28T06:53:14;10.57;;;4.00;;
29854;SDS011;16733;48.738;9.106;2023-02-28T06:55:40;13.05;;;4.15;;
29854;SDS011;16733;48.738;9.106;2023-02-28T06:58:06;8.52;;;4.03;;
29854;SDS011;16733;48.738;9.106;2023-02-28T07:00:42;9.55;;;4.53;;
29854;SDS011;16733;48.738;9.106;2023-02-28T07:03:09;9.73;;;4.05;;
29854;SDS011;16733;48.738;9.106;2023-02-28T07:05:35;7.25;;;3.55;;
29854;SDS011;16733;48.738;9.106;2023-02-28T07:08:02;7.95;;;4.00;;
29854;SDS011;16733;48.738;9.106;2023-02-28T07:10:29;6.65;;;3.58;;
29854;SDS011;16733;48.738;9.106;2023-02-28T07:12:54;7.45;;;3.95;;
29854;SDS011;16733;48.738;9.106;2023-02-28T07:15:20;12.52;;;4.28;;
29854;SDS011;16733;48.738;9.106;2023-02-28T07:17:46;8.93;;;3.97;;
29854;SDS011;16733;48.738;9.106;2023-02-28T07:20:11;4.93;;;3.50;;
29854;SDS011;16733;48.738;9.106;2023-02-28T07:22:37;6.07;;;3.95;;
29854;SDS011;16733;48.738;9.106;2023-02-28T07:25:04;7.63;;;4.25;;
29854;SDS011;16733;48.738;9.106;2023-02-28T07:27:30;5.35;;;3.50;;
29854;SDS011;16733;48.738;9.106;2023-02-28T07:29:55;6.78;;;3.38;;
29854;SDS011;16733;48.738;9.106;2023-02-28T07:32:21;6.03;;;3.25;;
29854;SDS011;16733;48.738;9.106;2023-02-28T07:34:47;11.30;;;4.90;;
29854;SDS011;16733;48.738;9.106;2023-02-28T07:37:13;7.72;;;4.93;;
29854;SDS011;16733;48.738;9.106;2023-02-28T07:39:39;7.72;;;4.13;;
29854;SDS011;16733;48.738;9.106;2023-02-28T07:42:08;7.88;;;4.80;;
29854;SDS011;16733;48.738;9.106;2023-02-28T07:44:36;14.63;;;4.38;;
29854;SDS011;16733;48.738;9.106;2023-02-28T07:47:05;7.30;;;4.25;;
29854;SDS011;16733;48.738;9.106;2023-02-28T07:49:32;14.40;;;4.50;;
29854;SDS011;16733;48.738;9.106;2023-02-28T07:51:59;13.60;;;4.78;;
29854;SDS011;16733;48.738;9.106;2023-02-28T07:54:24;12.40;;;5.72;;
29854;SDS011;16733;48.738;9.106;2023-02-28T07:56:50;10.18;;;5.22;;
29854;SDS011;16733;48.738;9.106;2023-02-28T07:59:15;9.63;;;5.28;;
29854;SDS011;16733;48.738;9.106;2023-02-28T08:01:41;8.35;;;4.75;;
29854;SDS011;16733;48.738;9.106;2023-02-28T08:04:09;13.32;;;4.60;;
29854;SDS011;16733;48.738;9.106;2023-02-28T08:06:35;9.77;;;5.00;;
29854;SDS011;16733;48.738;9.106;2023-02-28T08:09:00;9.02;;;5.72;;
29854;SDS011;16733;48.738;9.106;2023-02-28T08:11:26;11.18;;;5.00;;
29854;SDS011;16733;48.738;9.106;2023-02-28T08:13:51;10.98;;;5.32;;
29854;SDS011;16733;48.738;9.106;2023-02-28T08:16:17;10.45;;;5.10;;
29854;SDS011;16733;48.738;9.106;2023-02-28T08:18:47;8.15;;;5.80;;
29854;SDS011;16733;48.738;9.106;2023-02-28T08:21:16;7.95;;;4.50;;
29854;SDS011;16733;48.738;9.106;2023-02-28T08:23:43;11.70;;;5.88;;
29854;SDS011;16733;48.738;9.106;2023-02-28T08:26:09;7.05;;;4.88;;
29854;SDS011;16733;48.738;9.106;2023-02-28T08:28:34;9.88;;;5.20;;
29854;SDS011;16733;48.738;9.106;2023-02-28T08:31:00;6.40;;;4.22;;
29854;SDS011;16733;48.738;9.106;2023-02-28T08:33:31;7.50;;;4.30;;
29854;SDS011;16733;48.738;9.106;2023-02-28T08:35:57;11.25;;;5.28;;
29854;SDS011;16733;48.738;9.106;2023-02-28T08:38:22;11.52;;;5.03;;
29854;SDS011;16733;48.738;9.106;2023-02-28T08:40:49;10.55;;;4.88;;
29854;SDS011;16733;48.738;9.106;2023-02-28T08:43:14;8.57;;;4.00;;
29854;SDS011;16733;48.738;9.106;2023-02-28T08:45:40;7.63;;;4.55;;
29854;SDS011;16733;48.738;9.106;2023-02-28T08:48:06;12.13;;;5.05;;
29854;SDS011;16733;48.738;9.106;2023-02-28T08:50:31;9.25;;;4.53;;
29854;SDS011;16733;48.738;9.106;2023-02-28T08:52:57;9.40;;;4.57;;
29854;SDS011;16733;48.738;9.106;2023-02-28T08:55:23;10.38;;;5.80;;
29854;SDS011;16733;48.738;9.106;2023-02-28T08:57:48;9.95;;;4.97;;
29854;SDS011;16733;48.738;9.106;2023-02-28T09:00:14;11.65;;;5.70;;
29854;SDS011;16733;48.738;9.106;2023-02-28T09:02:40;9.68;;;5.22;;
29854;SDS011;16733;48.738;9.106;2023-02-28T09:05:07;7.40;;;4.85;;
29854;SDS011;16733;48.738;9.106;2023-02-28T09:07:33;11.52;;;5.38;;
29854;SDS011;16733;48.738;9.106;2023-02-28T09:09:59;8.63;;;5.78;;
29854;SDS011;16733;48.738;9.106;2023-02-28T09:12:25;9.52;;;4.38;;
29854;SDS011;16733;48.738;9.106;2023-02-28T09:14:56;8.48;;;5.05;;
29854;SDS011;16733;48.738;9.106;2023-02-28T09:17:22;8.38;;;4.60;;
29854;SDS011;16733;48.738;9.106;2023-02-28T09:19:48;8.95;;;4.82;;
29854;SDS011;16733;48.738;9.106;2023-02-28T09:22:16;9.13;;;4.95;;
29854;SDS011;16733;48.738;9.106;2023-02-28T09:24:42;9.60;;;5.35;;
29854;SDS011;16733;48.738;9.106;2023-02-28T09:27:09;11.90;;;5.45;;
29854;SDS011;16733;48.738;9.106;2023-02-28T09:29:35;8.32;;;5.50;;
29854;SDS011;16733;48.738;9.106;2023-02-28T09:32:01;17.10;;;6.03;;
29854;SDS011;16733;48.738;9.106;2023-02-28T09:34:27;11.75;;;5.53;;
29854;SDS011;16733;48.738;9.106;2023-02-28T09:36:53;11.80;;;5.47;;
29854;SDS011;16733;48.738;9.106;2023-02-28T09:39:20;9.43;;;5.43;;
29854;SDS011;16733;48.738;9.106;2023-02-28T09:41:47;9.45;;;5.25;;
29854;SDS011;16733;48.738;9.106;2023-02-28T09:46:46;9.10;;;5.40;;
29854;SDS011;16733;48.738;9.106;2023-02-28T09:49:22;12.98;;;4.70;;
29854;SDS011;16733;48.738;9.106;2023-02-28T09:52:01;11.52;;;6.43;;
29854;SDS011;16733;48.738;9.106;2023-02-28T09:54:34;8.48;;;4.70;;
29854;SDS011;16733;48.738;9.106;2023-02-28T10:05:13;11.50;;;6.00;;
29854;SDS011;16733;48.738;9.106;2023-02-28T10:08:02;5.63;;;3.22;;
29854;SDS011;16733;48.738;9.106;2023-02-28T10:10:40;15.55;;;5.78;;
29854;SDS011;16733;48.738;9.106;2023-02-28T10:13:12;7.82;;;4.63;;
29854;SDS011;16733;48.738;9.106;2023-02-28T10:16:03;10.65;;;4.07;;
29854;SDS011;16733;48.738;9.106;2023-02-28T10:18:47;9.40;;;4.60;;
29854;SDS011;16733;48.738;9.106;2023-02-28T10:21:19;15.07;;;3.53;;
29854;SDS011;16733;48.738;9.106;2023-02-28T10:23:49;8.55;;;4.95;;
29854;SDS011;16733;48.738;9.106;2023-02-28T10:26:21;9.93;;;4.85;;
29854;SDS011;16733;48.738;9.106;2023-02-28T10:28:51;12.60;;;5.65;;
29854;SDS011;16733;48.738;9.106;2023-02-28T10:31:18;14.98;;;6.32;;
29854;SDS011;16733;48.738;9.106;2023-02-28T10:33:44;11.90;;;6.55;;
29854;SDS011;16733;48.738;9.106;2023-02-28T10:36:15;8.65;;;4.93;;
29854;SDS011;16733;48.738;9.106;2023-02-28T10:38:44;12.13;;;6.50;;
29854;SDS011;16733;48.738;9.106;2023-02-28T10:41:11;8.57;;;4.75;;
29854;SDS011;16733;48.738;9.106;2023-02-28T10:43:50;11.02;;;5.72;;
29854;SDS011;16733;48.738;9.106;2023-02-28T10:46:16;9.90;;;5.43;;
29854;SDS011;16733;48.738;9.106;2023-02-28T10:48:59;12.52;;;6.05;;
29854;SDS011;16733;48.738;9.106;2023-02-28T10:51:37;14.60;;;5.82;;
29854;SDS011;16733;48.738;9.106;2023-02-28T10:54:04;11.85;;;5.95;;
29854;SDS011;16733;48.738;9.106;2023-02-28T10:56:31;9.48;;;4.78;;
29854;SDS011;16733;48.738;9.106;2023-02-28T10:59:01;12.20;;;5.20;;
29854;SDS011;16733;48.738;9.106;2023-02-28T11:06:46;12.70;;;5.57;;
29854;SDS011;16733;48.738;9.106;2023-02-28T11:09:18;10.82;;;5.72;;
29854;SDS011;16733;48.738;9.106;2023-02-28T11:11:46;7.53;;;4.93;;
29854;SDS011;16733;48.738;9.106;2023-02-28T11:14:21;13.15;;;6.60;;
29854;SDS011;16733;48.738;9.106;2023-02-28T11:16:51;14.27;;;5.00;;
29854;SDS011;16733;48.738;9.106;2023-02-28T11:19:53;11.82;;;5.32;;
29854;SDS011;16733;48.738;9.106;2023-02-28T11:22:11;7.90;;;4.43;;
29854;SDS011;16733;48.738;9.106;2023-02-28T11:24:44;12.48;;;6.07;;
29854;SDS011;16733;48.738;9.106;2023-02-28T11:29:55;12.35;;;6.13;;
29854;SDS011;16733;48.738;9.106;2023-02-28T11:32:23;11.88;;;6.63;;
29854;SDS011;16733;48.738;9.106;2023-02-28T11:35:10;9.95;;;5.75;;
29854;SDS011;16733;48.738;9.106;2023-02-28T11:37:41;10.32;;;6.15;;
29854;SDS011;16733;48.738;9.106;2023-02-28T11:43:06;11.32;;;6.70;;
29854;SDS011;16733;48.738;9.106;2023-02-28T11:51:33;10.30;;;5.70;;
29854;SDS011;16733;48.738;9.106;2023-02-28T11:57:38;9.32;;;4.95;;
29854;SDS011;16733;48.738;9.106;2023-02-28T12:03:17;7.65;;;5.72;;
29854;SDS011;16733;48.738;9.106;2023-02-28T12:06:00;11.35;;;6.88;;
29854;SDS011;16733;48.738;9.106;2023-02-28T12:08:54;11.38;;;5.88;;
29854;SDS011;16733;48.738;9.106;2023-02-28T12:11:29;11.50;;;6.30;;
29854;SDS011;16733;48.738;9.106;2023-02-28T12:28:02;10.82;;;5.50;;
29854;SDS011;16733;48.738;9.106;2023-02-28T12:30:32;11.23;;;7.00;;
29854;SDS011;16733;48.738;9.106;2023-02-28T12:33:05;10.93;;;5.80;;
29854;SDS011;16733;48.738;9.106;2023-02-28T12:38:17;7.88;;;5.20;;
29854;SDS011;16733;48.738;9.106;2023-02-28T12:40:50;14.68;;;5.65;;
29854;SDS011;16733;48.738;9.106;2023-02-28T12:43:32;9.20;;;5.13;;
29854;SDS011;16733;48.738;9.106;2023-02-28T12:46:10;8.13;;;5.32;;
29854;SDS011;16733;48.738;9.106;2023-02-28T12:51:11;10.65;;;5.53;;
29854;SDS011;16733;48.738;9.106;2023-02-28T12:56:16;10.02;;;5.53;;
29854;SDS011;16733;48.738;9.106;2023-02-28T12:59:01;11.15;;;6.07;;
29854;SDS011;16733;48.738;9.106;2023-02-28T13:01:51;14.10;;;7.32;;
29854;SDS011;16733;48.738;9.106;2023-02-28T13:10:01;8.35;;;5.25;;
29854;SDS011;16733;48.738;9.106;2023-02-28T13:12:31;13.10;;;5.82;;
29854;SDS011;16733;48.738;9.106;2023-02-28T13:15:39;10.48;;;5.80;;
29854;SDS011;16733;48.738;9.106;2023-02-28T13:17:53;12.65;;;5.97;;
29854;SDS011;16733;48.738;9.106;2023-02-28T13:20:24;10.20;;;5.55;;
29854;SDS011;16733;48.738;9.106;2023-02-28T13:22:53;12.38;;;5.95;;
29854;SDS011;16733;48.738;9.106;2023-02-28T13:27:52;7.72;;;5.45;;
29854;SDS011;16733;48.738;9.106;2023-02-28T13:33:25;10.52;;;5.57;;
29854;SDS011;16733;48.738;9.106;2023-02-28T13:39:00;8.10;;;4.95;;
29854;SDS011;16733;48.738;9.106;2023-02-28T14:05:06;9.15;;;5.45;;
29854;SDS011;16733;48.738;9.106;2023-02-28T14:07:43;14.05;;;5.53;;
29854;SDS011;16733;48.738;9.106;2023-02-28T14:11:02;8.82;;;5.90;;
29854;SDS011;16733;48.738;9.106;2023-02-28T14:16:02;10.80;;;5.50;;
29854;SDS011;16733;48.738;9.106;2023-02-28T14:18:34;14.60;;;7.05;;
29854;SDS011;16733;48.738;9.106;2023-02-28T14:21:16;12.07;;;5.95;;
29854;SDS011;16733;48.738;9.106;2023-02-28T14:26:49;11.25;;;5.97;;
29854;SDS011;16733;48.738;9.106;2023-02-28T14:37:50;10.40;;;5.93;;
29854;SDS011;16733;48.738;9.106;2023-02-28T14:40:19;11.73;;;5.78;;
29854;SDS011;16733;48.738;9.106;2023-02-28T14:42:58;11.90;;;5.88;;
29854;SDS011;16733;48.738;9.106;2023-02-28T14:45:29;10.65;;;6.10;;
29854;SDS011;16733;48.738;9.106;2023-02-28T14:47:57;9.73;;;5.35;;
29854;SDS011;16733;48.738;9.106;2023-02-28T14:50:29;10.45;;;5.53;;
29854;SDS011;16733;48.738;9.106;2023-02-28T14:52:57;11.25;;;6.15;;
29854;SDS011;16733;48.738;9.106;2023-02-28T14:55:25;9.43;;;5.82;;
29854;SDS011;16733;48.738;9.106;2023-02-28T14:57:54;8.93;;;5.38;;
29854;SDS011;16733;48.738;9.106;2023-02-28T15:02:49;11.10;;;5.97;;
29854;SDS011;16733;48.738;9.106;2023-02-28T15:07:48;9.50;;;5.70;;
29854;SDS011;16733;48.738;9.106;2023-02-28T15:10:30;10.32;;;5.55;;
29854;SDS011;16733;48.738;9.106;2023-02-28T15:21:12;10.93;;;5.72;;
29854;SDS011;16733;48.738;9.106;2023-02-28T15:23:41;10.05;;;5.72;;
29854;SDS011;16733;48.738;9.106;2023-02-28T15:26:14;10.65;;;5.85;;
29854;SDS011;16733;48.738;9.106;2023-02-28T15:28:42;8.68;;;5.35;;
29854;SDS011;16733;48.738;9.106;2023-02-28T15:31:19;8.32;;;5.00;;
29854;SDS011;16733;48.738;9.106;2023-02-28T15:33:53;10.15;;;5.78;;
29854;SDS011;16733;48.738;9.106;2023-02-28T15:36:26;12.32;;;5.45;;
29854;SDS011;16733;48.738;9.106;2023-02-28T15:38:56;9.50;;;5.57;;
29854;SDS011;16733;48.738;9.106;2023-02-28T15:41:26;9.10;;;5.43;;
29854;SDS011;16733;48.738;9.106;2023-02-28T15:47:05;12.15;;;5.20;;
29854;SDS011;16733;48.738;9.106;2023-02-28T15:52:21;8.63;;;5.03;;
29854;SDS011;16733;48.738;9.106;2023-02-28T15:55:09;9.38;;;5.50;;
29854;SDS011;16733;48.738;9.106;2023-02-28T15:57:48;12.18;;;6.03;;
29854;SDS011;16733;48.738;9.106;2023-02-28T16:00:21;10.80;;;6.07;;
29854;SDS011;16733;48.738;9.106;2023-02-28T16:02:48;10.20;;;5.10;;
29854;SDS011;16733;48.738;9.106;2023-02-28T16:07:53;12.52;;;5.85;;
29854;SDS011;16733;48.738;9.106;2023-02-28T16:10:21;10.88;;;5.90;;
29854;SDS011;16733;48.738;9.106;2023-02-28T16:12:52;10.75;;;6.00;;
29854;SDS011;16733;48.738;9.106;2023-02-28T16:15:24;7.18;;;5.22;;
29854;SDS011;16733;48.738;9.106;2023-02-28T16:17:51;15.73;;;7.75;;
29854;SDS011;16733;48.738;9.106;2023-02-28T16:20:25;10.65;;;6.25;;
29854;SDS011;16733;48.738;9.106;2023-02-28T16:22:55;12.75;;;6.28;;
29854;SDS011;16733;48.738;9.106;2023-02-28T16:25:54;10.35;;;6.28;;
29854;SDS011;16733;48.738;9.106;2023-02-28T16:28:20;12.07;;;6.60;;
29854;SDS011;16733;48.738;9.106;2023-02-28T16:30:52;12.65;;;7.03;;
29854;SDS011;16733;48.738;9.106;2023-02-28T16:33:18;10.30;;;6.10;;
29854;SDS011;16733;48.738;9.106;2023-02-28T16:35:44;10.52;;;5.90;;
29854;SDS011;16733;48.738;9.106;2023-02-28T16:38:09;8.65;;;5.82;;
29854;SDS011;16733;48.738;9.106;2023-02-28T16:40:35;10.63;;;5.60;;
29854;SDS011;16733;48.738;9.106;2023-02-28T16:43:02;10.95;;;6.25;;
29854;SDS011;16733;48.738;9.106;2023-02-28T16:45:32;13.82;;;6.45;;
29854;SDS011;16733;48.738;9.106;2023-02-28T16:47:58;15.15;;;7.15;;
29854;SDS011;16733;48.738;9.106;2023-02-28T16:50:25;12.82;;;6.45;;
29854;SDS011;16733;48.738;9.106;2023-02-28T16:52:53;8.48;;;5.63;;
29854;SDS011;16733;48.738;9.106;2023-02-28T16:55:19;14.63;;;5.95;;
29854;SDS011;16733;48.738;9.106;2023-02-28T16:57:56;7.65;;;5.05;;
29854;SDS011;16733;48.738;9.106;2023-02-28T17:00:23;11.05;;;5.93;;
29854;SDS011;16733;48.738;9.106;2023-02-28T17:02:50;12.43;;;6.97;;
29854;SDS011;16733;48.738;9.106;2023-02-28T17:05:16;16.17;;;6.85;;
29854;SDS011;16733;48.738;9.106;2023-02-28T17:07:43;10.65;;;5.32;;
29854;SDS011;16733;48.738;9.106;2023-02-28T17:10:23;14.85;;;6.32;;
29854;SDS011;16733;48.738;9.106;2023-02-28T17:12:50;11.52;;;6.10;;
29854;SDS011;16733;48.738;9.106;2023-02-28T17:15:17;10.93;;;5.85;;
29854;SDS011;16733;48.738;9.106;2023-02-28T17:17:45;13.27;;;6.35;;
29854;SDS011;16733;48.738;9.106;2023-02-28T17:20:16;11.15;;;6.20;;
29854;SDS011;16733;48.738;9.106;2023-02-28T17:22:47;10.25;;;5.57;;
29854;SDS011;16733;48.738;9.106;2023-02-28T17:25:13;10.73;;;6.20;;
29854;SDS011;16733;48.738;9.106;2023-02-28T17:27:39;10.98;;;6.13;;
29854;SDS011;16733;48.738;9.106;2023-02-28T17:30:24;8.98;;;5.65;;
29854;SDS011;16733;48.738;9.106;2023-02-28T17:32:54;13.60;;;6.30;;
29854;SDS011;16733;48.738;9.106;2023-02-28T17:35:20;10.57;;;6.38;;
29854;SDS011;16733;48.738;9.106;2023-02-28T17:37:46;15.07;;;7.35;;
29854;SDS011;16733;48.738;9.106;2023-02-28T17:40:13;9.23;;;5.70;;
29854;SDS011;16733;48.738;9.106;2023-02-28T17:42:43;8.48;;;5.45;;
29854;SDS011;16733;48.738;9.106;2023-02-28T17:45:10;14.00;;;6.35;;
29854;SDS011;16733;48.738;9.106;2023-02-28T17:47:36;12.15;;;6.68;;
29854;SDS011;16733;48.738;9.106;2023-02-28T17:50:02;18.00;;;6.68;;
29854;SDS011;16733;48.738;9.106;2023-02-28T17:52:28;12.40;;;6.68;;
29854;SDS011;16733;48.738;9.106;2023-02-28T17:54:54;10.95;;;5.78;;
29854;SDS011;16733;48.738;9.106;2023-02-28T17:57:20;9.38;;;5.63;;